sensor_id;sensor_type;location;lat;lon;timestamp;pressure;altitude;pressure_sealevel;temperature;humidity
70407;BME280;57821;52.202;0.154;2023-02-01T00:00:29;102326.84;;;4.70;73.27
70407;BME280;57821;52.202;0.154;2023-02-01T00:02:56;102314.00;;;4.70;73.38
70407;BME280;57821;52.202;0.154;2023-02-01T00:05:22;102315.69;;;4.70;73.09
70407;BME280;57821;52.202;0.154;2023-02-01T00:07:49;102318.25;;;4.70;74.15
70407;BME280;57821;52.202;0.154;2023-02-01T00:10:16;102317.38;;;4.69;73.15
70407;BME280;57821;52.202;0.154;2023-02-01T00:12:43;102311.22;;;4.66;73.84
70407;BME280;57821;52.202;0.154;2023-02-01T00:15:09;102325.88;;;4.68;73.33
70407;BME280;57821;52.202;0.154;2023-02-01T00:17:36;102317.22;;;4.66;73.51
70407;BME280;57821;52.202;0.154;2023-02-01T00:20:03;102309.47;;;4.65;73.54
70407;BME280;57821;52.202;0.154;2023-02-01T00:22:30;102315.47;;;4.65;73.76
70407;BME280;57821;52.202;0.154;2023-02-01T00:24:58;102304.31;;;4.65;73.98
70407;BME280;57821;52.202;0.154;2023-02-01T00:27:24;102309.50;;;4.66;74.59
70407;BME280;57821;52.202;0.154;2023-02-01T00:29:51;102305.13;;;4.64;74.49
70407;BME280;57821;52.202;0.154;2023-02-01T00:32:18;102293.16;;;4.64;73.73
70407;BME280;57821;52.202;0.154;2023-02-01T00:34:44;102294.03;;;4.65;74.81
70407;BME280;57821;52.202;0.154;2023-02-01T00:37:11;102281.13;;;4.63;74.56
70407;BME280;57821;52.202;0.154;2023-02-01T00:39:37;102287.06;;;4.62;73.58
70407;BME280;57821;52.202;0.154;2023-02-01T00:42:04;102276.66;;;4.59;73.90
70407;BME280;57821;52.202;0.154;2023-02-01T00:44:31;102270.66;;;4.59;73.59
70407;BME280;57821;52.202;0.154;2023-02-01T00:46:57;102269.59;;;4.55;74.07
70407;BME280;57821;52.202;0.154;2023-02-01T00:49:24;102275.59;;;4.54;74.61
70407;BME280;57821;52.202;0.154;2023-02-01T00:51:50;102285.72;;;4.51;75.05
70407;BME280;57821;52.202;0.154;2023-02-01T00:54:17;102286.44;;;4.48;74.90
70407;BME280;57821;52.202;0.154;2023-02-01T00:56:43;102284.69;;;4.47;75.12
70407;BME280;57821;52.202;0.154;2023-02-01T00:59:11;102272.59;;;4.45;75.89
70407;BME280;57821;52.202;0.154;2023-02-01T01:01:38;102275.16;;;4.45;74.77
70407;BME280;57821;52.202;0.154;2023-02-01T01:04:05;102276.75;;;4.43;76.02
70407;BME280;57821;52.202;0.154;2023-02-01T01:06:33;102292.19;;;4.43;74.96
70407;BME280;57821;52.202;0.154;2023-02-01T01:09:05;102275.03;;;4.42;76.04
70407;BME280;57821;52.202;0.154;2023-02-01T01:11:35;102265.41;;;4.38;75.82
70407;BME280;57821;52.202;0.154;2023-02-01T01:14:04;102279.28;;;4.41;75.48
70407;BME280;57821;52.202;0.154;2023-02-01T01:16:32;102267.16;;;4.39;75.61
70407;BME280;57821;52.202;0.154;2023-02-01T01:19:00;102286.75;;;4.37;75.23
70407;BME280;57821;52.202;0.154;2023-02-01T01:21:27;102271.31;;;4.35;75.21
70407;BME280;57821;52.202;0.154;2023-02-01T01:23:54;102269.63;;;4.36;76.13
70407;BME280;57821;52.202;0.154;2023-02-01T01:26:23;102261.91;;;4.36;76.25
70407;BME280;57821;52.202;0.154;2023-02-01T01:28:50;102264.47;;;4.36;75.63
70407;BME280;57821;52.202;0.154;2023-02-01T01:31:18;102255.91;;;4.35;75.83
70407;BME280;57821;52.202;0.154;2023-02-01T01:33:52;102248.00;;;4.31;77.14
70407;BME280;57821;52.202;0.154;2023-02-01T01:36:19;102267.06;;;4.36;76.05
70407;BME280;57821;52.202;0.154;2023-02-01T01:38:46;102260.94;;;4.34;76.41
70407;BME280;57821;52.202;0.154;2023-02-01T01:41:29;102274.69;;;4.34;76.01
70407;BME280;57821;52.202;0.154;2023-02-01T01:44:05;102278.03;;;4.33;75.94
70407;BME280;57821;52.202;0.154;2023-02-01T01:46:35;102275.47;;;4.33;76.05
70407;BME280;57821;52.202;0.154;2023-02-01T01:49:11;102284.88;;;4.33;76.79
70407;BME280;57821;52.202;0.154;2023-02-01T01:51:51;102276.09;;;4.28;76.53
70407;BME280;57821;52.202;0.154;2023-02-01T01:54:39;102286.50;;;4.31;76.68
70407;BME280;57821;52.202;0.154;2023-02-01T01:57:14;102272.56;;;4.26;76.73
70407;BME280;57821;52.202;0.154;2023-02-01T01:59:47;102286.34;;;4.28;76.74
70407;BME280;57821;52.202;0.154;2023-02-01T02:02:15;102280.34;;;4.27;77.37
70407;BME280;57821;52.202;0.154;2023-02-01T02:04:42;102277.69;;;4.26;76.54
70407;BME280;57821;52.202;0.154;2023-02-01T02:07:16;102276.75;;;4.24;77.42
70407;BME280;57821;52.202;0.154;2023-02-01T02:09:44;102281.75;;;4.21;77.66
70407;BME280;57821;52.202;0.154;2023-02-01T02:12:25;102272.25;;;4.20;77.27
70407;BME280;57821;52.202;0.154;2023-02-01T02:14:52;102262.75;;;4.17;76.76
70407;BME280;57821;52.202;0.154;2023-02-01T02:20:22;102252.22;;;4.11;77.21
70407;BME280;57821;52.202;0.154;2023-02-01T02:33:59;102209.56;;;3.95;78.20
70407;BME280;57821;52.202;0.154;2023-02-01T02:42:43;102223.47;;;4.00;78.62
70407;BME280;57821;52.202;0.154;2023-02-01T02:48:12;102229.34;;;3.98;78.74
70407;BME280;57821;52.202;0.154;2023-02-01T02:50:48;102235.34;;;3.98;78.49
70407;BME280;57821;52.202;0.154;2023-02-01T02:53:56;102239.69;;;3.99;77.92
70407;BME280;57821;52.202;0.154;2023-02-01T02:56:24;102223.47;;;4.00;78.90
70407;BME280;57821;52.202;0.154;2023-02-01T02:58:51;102229.41;;;3.99;78.07
70407;BME280;57821;52.202;0.154;2023-02-01T03:01:18;102226.84;;;3.99;78.25
70407;BME280;57821;52.202;0.154;2023-02-01T03:03:46;102219.00;;;3.96;78.55
70407;BME280;57821;52.202;0.154;2023-02-01T03:06:14;102216.22;;;3.92;78.28
70407;BME280;57821;52.202;0.154;2023-02-01T03:08:42;102229.22;;;3.95;79.22
70407;BME280;57821;52.202;0.154;2023-02-01T03:11:10;102232.66;;;3.95;78.53
70407;BME280;57821;52.202;0.154;2023-02-01T03:13:53;102224.00;;;3.93;79.65
70407;BME280;57821;52.202;0.154;2023-02-01T03:19:25;102217.09;;;3.92;78.48
70407;BME280;57821;52.202;0.154;2023-02-01T03:21:56;102216.22;;;3.92;78.78
70407;BME280;57821;52.202;0.154;2023-02-01T03:24:27;102198.84;;;3.86;79.06
70407;BME280;57821;52.202;0.154;2023-02-01T03:26:57;102211.88;;;3.91;79.03
70407;BME280;57821;52.202;0.154;2023-02-01T03:29:35;102213.56;;;3.90;78.51
70407;BME280;57821;52.202;0.154;2023-02-01T03:32:04;102207.50;;;3.88;79.87
70407;BME280;57821;52.202;0.154;2023-02-01T03:34:31;102215.06;;;3.85;78.78
70407;BME280;57821;52.202;0.154;2023-02-01T03:37:01;102214.94;;;3.82;78.68
70407;BME280;57821;52.202;0.154;2023-02-01T03:42:05;102206.78;;;3.73;78.51
70407;BME280;57821;52.202;0.154;2023-02-01T03:44:39;102209.50;;;3.76;79.85
70407;BME280;57821;52.202;0.154;2023-02-01T03:47:08;102219.69;;;3.75;79.80
70407;BME280;57821;52.202;0.154;2023-02-01T03:49:43;102219.31;;;3.67;80.25
70407;BME280;57821;52.202;0.154;2023-02-01T03:52:15;102217.72;;;3.69;79.73
70407;BME280;57821;52.202;0.154;2023-02-01T03:54:44;102221.16;;;3.69;79.85
70407;BME280;57821;52.202;0.154;2023-02-01T03:57:14;102223.66;;;3.68;79.87
70407;BME280;57821;52.202;0.154;2023-02-01T03:59:44;102225.41;;;3.69;80.05
70407;BME280;57821;52.202;0.154;2023-02-01T04:02:11;102227.97;;;3.69;79.62
70407;BME280;57821;52.202;0.154;2023-02-01T04:04:38;102225.41;;;3.69;79.57
70407;BME280;57821;52.202;0.154;2023-02-01T04:07:05;102230.53;;;3.69;80.59
70407;BME280;57821;52.202;0.154;2023-02-01T04:09:31;102228.78;;;3.68;80.81
70407;BME280;57821;52.202;0.154;2023-02-01T04:11:58;102236.47;;;3.68;80.52
70407;BME280;57821;52.202;0.154;2023-02-01T04:14:24;102220.19;;;3.67;80.00
70407;BME280;57821;52.202;0.154;2023-02-01T04:16:51;102231.34;;;3.68;80.30
70407;BME280;57821;52.202;0.154;2023-02-01T04:19:18;102233.09;;;3.69;81.26
70407;BME280;57821;52.202;0.154;2023-02-01T04:21:44;102223.81;;;3.71;81.19
70407;BME280;57821;52.202;0.154;2023-02-01T04:24:11;102229.81;;;3.71;81.41
70407;BME280;57821;52.202;0.154;2023-02-01T04:26:37;102225.56;;;3.72;81.28
70407;BME280;57821;52.202;0.154;2023-02-01T04:29:04;102221.31;;;3.72;80.87
70407;BME280;57821;52.202;0.154;2023-02-01T04:31:30;102223.06;;;3.73;80.50
70407;BME280;57821;52.202;0.154;2023-02-01T04:33:57;102227.31;;;3.73;81.45
70407;BME280;57821;52.202;0.154;2023-02-01T04:36:24;102217.03;;;3.73;80.54
70407;BME280;57821;52.202;0.154;2023-02-01T04:38:51;102220.56;;;3.75;80.75
70407;BME280;57821;52.202;0.154;2023-02-01T04:41:18;102223.94;;;3.74;80.70
70407;BME280;57821;52.202;0.154;2023-02-01T04:43:46;102221.38;;;3.74;81.05
70407;BME280;57821;52.202;0.154;2023-02-01T04:46:13;102225.56;;;3.72;81.48
70407;BME280;57821;52.202;0.154;2023-02-01T04:48:40;102227.31;;;3.73;81.85
70407;BME280;57821;52.202;0.154;2023-02-01T04:51:07;102222.19;;;3.73;81.63
70407;BME280;57821;52.202;0.154;2023-02-01T04:53:33;102217.03;;;3.73;81.54
70407;BME280;57821;52.202;0.154;2023-02-01T04:56:00;102223.91;;;3.72;80.87
70407;BME280;57821;52.202;0.154;2023-02-01T04:58:27;102224.69;;;3.71;80.95
70407;BME280;57821;52.202;0.154;2023-02-01T05:00:53;102228.94;;;3.71;80.68
70407;BME280;57821;52.202;0.154;2023-02-01T05:03:20;102227.19;;;3.70;81.32
70407;BME280;57821;52.202;0.154;2023-02-01T05:05:49;102223.66;;;3.68;81.79
70407;BME280;57821;52.202;0.154;2023-02-01T05:08:15;102218.53;;;3.68;82.12
70407;BME280;57821;52.202;0.154;2023-02-01T05:10:42;102220.28;;;3.69;81.27
70407;BME280;57821;52.202;0.154;2023-02-01T05:13:10;102213.38;;;3.68;81.90
70407;BME280;57821;52.202;0.154;2023-02-01T05:15:37;102216.75;;;3.67;81.68
70407;BME280;57821;52.202;0.154;2023-02-01T05:18:04;102210.69;;;3.65;81.99
70407;BME280;57821;52.202;0.154;2023-02-01T05:20:30;102212.28;;;3.63;81.33
70407;BME280;57821;52.202;0.154;2023-02-01T05:22:57;102213.19;;;3.63;82.20
70407;BME280;57821;52.202;0.154;2023-02-01T05:25:23;102217.34;;;3.61;82.02
70407;BME280;57821;52.202;0.154;2023-02-01T05:27:50;102218.09;;;3.59;81.35
70407;BME280;57821;52.202;0.154;2023-02-01T05:30:16;102208.63;;;3.58;81.32
70407;BME280;57821;52.202;0.154;2023-02-01T05:32:43;102208.63;;;3.58;82.64
70407;BME280;57821;52.202;0.154;2023-02-01T05:35:09;102209.44;;;3.57;82.64
70407;BME280;57821;52.202;0.154;2023-02-01T05:37:36;102205.19;;;3.57;81.76
70407;BME280;57821;52.202;0.154;2023-02-01T05:40:03;102212.09;;;3.58;82.13
70407;BME280;57821;52.202;0.154;2023-02-01T05:42:30;102212.16;;;3.60;82.03
70407;BME280;57821;52.202;0.154;2023-02-01T05:44:56;102212.22;;;3.61;83.25
70407;BME280;57821;52.202;0.154;2023-02-01T05:47:23;102199.38;;;3.61;82.93
70407;BME280;57821;52.202;0.154;2023-02-01T05:49:49;102192.56;;;3.62;82.49
70407;BME280;57821;52.202;0.154;2023-02-01T05:52:16;102203.00;;;3.65;81.95
70407;BME280;57821;52.202;0.154;2023-02-01T05:54:42;102201.25;;;3.64;82.50
70407;BME280;57821;52.202;0.154;2023-02-01T05:57:09;102192.75;;;3.65;82.24
70407;BME280;57821;52.202;0.154;2023-02-01T05:59:35;102195.38;;;3.66;82.50
70407;BME280;57821;52.202;0.154;2023-02-01T06:02:02;102192.88;;;3.68;82.47
70407;BME280;57821;52.202;0.154;2023-02-01T06:04:28;102194.63;;;3.69;81.88
70407;BME280;57821;52.202;0.154;2023-02-01T06:06:55;102202.41;;;3.70;82.13
70407;BME280;57821;52.202;0.154;2023-02-01T06:09:21;102197.06;;;3.66;82.50
70407;BME280;57821;52.202;0.154;2023-02-01T06:11:48;102213.53;;;3.71;82.47
70407;BME280;57821;52.202;0.154;2023-02-01T06:14:14;102210.19;;;3.72;82.58
70407;BME280;57821;52.202;0.154;2023-02-01T06:16:41;102202.47;;;3.72;81.90
70407;BME280;57821;52.202;0.154;2023-02-01T06:19:07;102210.22;;;3.73;81.76
70407;BME280;57821;52.202;0.154;2023-02-01T06:21:35;102211.06;;;3.72;82.59
70407;BME280;57821;52.202;0.154;2023-02-01T06:24:02;102212.75;;;3.72;82.75
70407;BME280;57821;52.202;0.154;2023-02-01T06:26:29;102228.19;;;3.73;82.36
70407;BME280;57821;52.202;0.154;2023-02-01T06:28:56;102211.91;;;3.73;82.44
70407;BME280;57821;52.202;0.154;2023-02-01T06:31:22;102226.47;;;3.72;83.03
70407;BME280;57821;52.202;0.154;2023-02-01T06:33:49;102219.59;;;3.73;81.96
70407;BME280;57821;52.202;0.154;2023-02-01T06:36:17;102224.75;;;3.73;82.60
70407;BME280;57821;52.202;0.154;2023-02-01T06:38:43;102229.06;;;3.74;82.00
70407;BME280;57821;52.202;0.154;2023-02-01T06:41:10;102230.72;;;3.72;83.06
70407;BME280;57821;52.202;0.154;2023-02-01T06:43:37;102227.19;;;3.70;82.73
70407;BME280;57821;52.202;0.154;2023-02-01T06:46:06;102225.34;;;3.67;82.14
70407;BME280;57821;52.202;0.154;2023-02-01T06:48:33;102228.19;;;3.73;82.86
70407;BME280;57821;52.202;0.154;2023-02-01T06:51:00;102227.31;;;3.73;82.43
70407;BME280;57821;52.202;0.154;2023-02-01T06:53:27;102227.31;;;3.73;82.37
70407;BME280;57821;52.202;0.154;2023-02-01T06:56:02;102235.84;;;3.72;82.99
70407;BME280;57821;52.202;0.154;2023-02-01T06:58:30;102228.13;;;3.72;82.34
70407;BME280;57821;52.202;0.154;2023-02-01T07:00:58;102237.53;;;3.71;82.71
70407;BME280;57821;52.202;0.154;2023-02-01T07:03:26;102226.28;;;3.69;82.87
70407;BME280;57821;52.202;0.154;2023-02-01T07:05:55;102223.66;;;3.68;82.93
70407;BME280;57821;52.202;0.154;2023-02-01T07:08:22;102221.88;;;3.67;82.34
70407;BME280;57821;52.202;0.154;2023-02-01T07:10:48;102222.72;;;3.66;82.86
70407;BME280;57821;52.202;0.154;2023-02-01T07:13:15;102229.53;;;3.65;82.88
70407;BME280;57821;52.202;0.154;2023-02-01T07:15:41;102221.84;;;3.65;82.61
70407;BME280;57821;52.202;0.154;2023-02-01T07:18:08;102225.19;;;3.64;82.79
70407;BME280;57821;52.202;0.154;2023-02-01T07:20:34;102224.31;;;3.64;83.19
70407;BME280;57821;52.202;0.154;2023-02-01T07:23:01;102230.25;;;3.63;83.20
70407;BME280;57821;52.202;0.154;2023-02-01T07:25:27;102229.38;;;3.62;82.36
70407;BME280;57821;52.202;0.154;2023-02-01T07:27:54;102235.38;;;3.63;82.56
70407;BME280;57821;52.202;0.154;2023-02-01T07:30:20;102226.88;;;3.64;83.29
70407;BME280;57821;52.202;0.154;2023-02-01T07:32:47;102235.38;;;3.63;82.22
70407;BME280;57821;52.202;0.154;2023-02-01T07:35:14;102237.00;;;3.61;82.37
70407;BME280;57821;52.202;0.154;2023-02-01T07:37:41;102238.63;;;3.59;83.11
70407;BME280;57821;52.202;0.154;2023-02-01T07:40:08;102239.34;;;3.56;83.01
70407;BME280;57821;52.202;0.154;2023-02-01T07:42:35;102244.41;;;3.55;82.92
70407;BME280;57821;52.202;0.154;2023-02-01T07:45:02;102249.47;;;3.53;82.49
70407;BME280;57821;52.202;0.154;2023-02-01T07:47:46;102251.22;;;3.54;83.15
70407;BME280;57821;52.202;0.154;2023-02-01T07:50:13;102241.84;;;3.55;83.34
70407;BME280;57821;52.202;0.154;2023-02-01T07:52:40;102244.41;;;3.55;83.48
70407;BME280;57821;52.202;0.154;2023-02-01T07:55:07;102245.34;;;3.57;82.47
70407;BME280;57821;52.202;0.154;2023-02-01T07:57:33;102241.97;;;3.58;83.67
70407;BME280;57821;52.202;0.154;2023-02-01T08:00:00;102247.28;;;3.61;83.58
70407;BME280;57821;52.202;0.154;2023-02-01T08:02:26;102248.13;;;3.61;82.49
70407;BME280;57821;52.202;0.154;2023-02-01T08:04:53;102244.75;;;3.62;83.60
70407;BME280;57821;52.202;0.154;2023-02-01T08:07:19;102244.84;;;3.64;82.63
70407;BME280;57821;52.202;0.154;2023-02-01T08:09:46;102248.38;;;3.66;83.70
70407;BME280;57821;52.202;0.154;2023-02-01T08:12:12;102240.81;;;3.69;83.03
70407;BME280;57821;52.202;0.154;2023-02-01T08:14:39;102238.44;;;3.73;82.98
70407;BME280;57821;52.202;0.154;2023-02-01T08:17:06;102234.38;;;3.77;82.31
70407;BME280;57821;52.202;0.154;2023-02-01T08:19:33;102236.25;;;3.81;83.52
70407;BME280;57821;52.202;0.154;2023-02-01T08:21:59;102228.75;;;3.86;83.63
70407;BME280;57821;52.202;0.154;2023-02-01T08:24:26;102225.59;;;3.91;83.06
70407;BME280;57821;52.202;0.154;2023-02-01T08:26:52;102210.44;;;3.96;82.62
70407;BME280;57821;52.202;0.154;2023-02-01T08:29:19;102219.22;;;4.01;83.42
70407;BME280;57821;52.202;0.154;2023-02-01T08:31:45;102219.50;;;4.07;83.37
70407;BME280;57821;52.202;0.154;2023-02-01T08:34:12;102226.63;;;4.12;82.61
70407;BME280;57821;52.202;0.154;2023-02-01T08:36:38;102226.91;;;4.19;83.27
70407;BME280;57821;52.202;0.154;2023-02-01T08:39:05;102228.09;;;4.27;82.40
70407;BME280;57821;52.202;0.154;2023-02-01T08:41:32;102233.66;;;4.36;83.42
70407;BME280;57821;52.202;0.154;2023-02-01T08:43:58;102226.28;;;4.43;82.73
70407;BME280;57821;52.202;0.154;2023-02-01T08:46:26;102232.72;;;4.53;82.06
70407;BME280;57821;52.202;0.154;2023-02-01T08:48:52;102230.44;;;4.59;82.77
70407;BME280;57821;52.202;0.154;2023-02-01T08:51:21;102206.69;;;4.65;82.85
70407;BME280;57821;52.202;0.154;2023-02-01T08:53:48;102223.63;;;4.80;82.77
70407;BME280;57821;52.202;0.154;2023-02-01T08:56:17;102216.19;;;4.86;81.65
70407;BME280;57821;52.202;0.154;2023-02-01T08:58:44;102223.03;;;5.07;83.04
70407;BME280;57821;52.202;0.154;2023-02-01T09:01:14;102222.19;;;5.27;82.58
70407;BME280;57821;52.202;0.154;2023-02-01T09:03:41;102220.59;;;5.51;82.45
70407;BME280;57821;52.202;0.154;2023-02-01T09:06:10;102212.97;;;5.75;81.17
70407;BME280;57821;52.202;0.154;2023-02-01T09:08:37;102213.16;;;6.02;81.10
70407;BME280;57821;52.202;0.154;2023-02-01T09:11:07;102202.03;;;6.25;81.14
70407;BME280;57821;52.202;0.154;2023-02-01T09:13:34;102207.47;;;6.56;80.04
70407;BME280;57821;52.202;0.154;2023-02-01T09:16:01;102205.78;;;6.82;79.69
70407;BME280;57821;52.202;0.154;2023-02-01T09:18:27;102213.59;;;7.09;78.78
70407;BME280;57821;52.202;0.154;2023-02-01T09:20:54;102212.75;;;7.35;78.87
70407;BME280;57821;52.202;0.154;2023-02-01T09:23:20;102218.75;;;7.61;77.79
70407;BME280;57821;52.202;0.154;2023-02-01T09:25:47;102221.28;;;7.88;76.83
70407;BME280;57821;52.202;0.154;2023-02-01T09:28:13;102232.56;;;8.18;76.60
70407;BME280;57821;52.202;0.154;2023-02-01T09:30:40;102228.19;;;8.46;73.39
70407;BME280;57821;52.202;0.154;2023-02-01T09:33:07;102232.31;;;8.69;72.81
70407;BME280;57821;52.202;0.154;2023-02-01T09:35:33;102249.28;;;8.91;72.77
70407;BME280;57821;52.202;0.154;2023-02-01T09:38:00;102243.84;;;9.15;71.91
70407;BME280;57821;52.202;0.154;2023-02-01T09:40:26;102246.97;;;9.34;71.25
70407;BME280;57821;52.202;0.154;2023-02-01T09:43:11;102246.78;;;9.63;70.56
70407;BME280;57821;52.202;0.154;2023-02-01T09:45:55;102255.19;;;9.88;70.50
70407;BME280;57821;52.202;0.154;2023-02-01T09:48:30;102251.25;;;10.06;68.53
70407;BME280;57821;52.202;0.154;2023-02-01T09:50:59;102252.38;;;10.17;67.64
70407;BME280;57821;52.202;0.154;2023-02-01T09:53:35;102255.25;;;10.29;66.89
70407;BME280;57821;52.202;0.154;2023-02-01T09:56:06;102254.66;;;10.42;66.29
70407;BME280;57821;52.202;0.154;2023-02-01T10:01:20;102251.56;;;10.61;64.04
70407;BME280;57821;52.202;0.154;2023-02-01T10:03:47;102257.09;;;10.77;65.93
70407;BME280;57821;52.202;0.154;2023-02-01T10:06:30;102247.03;;;10.93;64.17
70407;BME280;57821;52.202;0.154;2023-02-01T10:09:12;102242.16;;;11.13;63.63
70407;BME280;57821;52.202;0.154;2023-02-01T10:11:49;102253.72;;;11.30;64.17
70407;BME280;57821;52.202;0.154;2023-02-01T10:16:58;102243.78;;;11.59;63.27
70407;BME280;57821;52.202;0.154;2023-02-01T10:19:40;102250.22;;;11.79;62.82
70407;BME280;57821;52.202;0.154;2023-02-01T10:22:23;102248.84;;;12.04;62.40
70407;BME280;57821;52.202;0.154;2023-02-01T10:25:24;102260.34;;;12.21;62.18
70407;BME280;57821;52.202;0.154;2023-02-01T10:27:52;102270.91;;;12.35;60.22
70407;BME280;57821;52.202;0.154;2023-02-01T10:30:22;102251.97;;;12.44;60.52
70407;BME280;57821;52.202;0.154;2023-02-01T10:32:55;102258.13;;;12.50;58.00
70407;BME280;57821;52.202;0.154;2023-02-01T10:35:27;102264.19;;;12.52;59.00
70407;BME280;57821;52.202;0.154;2023-02-01T10:37:55;102253.75;;;12.48;58.48
70407;BME280;57821;52.202;0.154;2023-02-01T10:40:24;102256.38;;;12.49;58.91
70407;BME280;57821;52.202;0.154;2023-02-01T10:42:54;102259.09;;;12.60;58.13
70407;BME280;57821;52.202;0.154;2023-02-01T10:45:26;102267.81;;;12.65;58.24
70407;BME280;57821;52.202;0.154;2023-02-01T10:47:55;102247.00;;;12.65;57.54
70407;BME280;57821;52.202;0.154;2023-02-01T10:50:35;102251.31;;;12.61;57.10
70407;BME280;57821;52.202;0.154;2023-02-01T10:53:09;102261.59;;;12.52;56.27
70407;BME280;57821;52.202;0.154;2023-02-01T10:55:49;102258.09;;;12.49;57.30
70407;BME280;57821;52.202;0.154;2023-02-01T10:58:20;102253.66;;;12.39;56.92
70407;BME280;57821;52.202;0.154;2023-02-01T11:00:53;102239.72;;;12.33;56.64
70407;BME280;57821;52.202;0.154;2023-02-01T11:03:39;102247.34;;;12.21;56.13
70407;BME280;57821;52.202;0.154;2023-02-01T11:11:32;102267.78;;;11.96;56.98
70407;BME280;57821;52.202;0.154;2023-02-01T11:14:02;102242.53;;;11.87;57.26
70407;BME280;57821;52.202;0.154;2023-02-01T11:16:37;102245.84;;;11.77;57.41
70407;BME280;57821;52.202;0.154;2023-02-01T11:19:06;102266.50;;;11.71;57.24
70407;BME280;57821;52.202;0.154;2023-02-01T11:21:34;102261.16;;;11.62;57.89
70407;BME280;57821;52.202;0.154;2023-02-01T11:24:03;102274.88;;;11.51;57.51
70407;BME280;57821;52.202;0.154;2023-02-01T11:26:31;102255.63;;;11.40;57.46
70407;BME280;57821;52.202;0.154;2023-02-01T11:29:04;102254.59;;;11.29;58.15
70407;BME280;57821;52.202;0.154;2023-02-01T11:31:33;102254.38;;;11.19;57.68
70407;BME280;57821;52.202;0.154;2023-02-01T11:34:08;102249.06;;;11.11;58.55
70407;BME280;57821;52.202;0.154;2023-02-01T11:36:38;102257.69;;;11.10;58.45
70407;BME280;57821;52.202;0.154;2023-02-01T11:39:10;102257.63;;;11.07;59.09
70407;BME280;57821;52.202;0.154;2023-02-01T11:41:55;102254.97;;;11.02;58.88
70407;BME280;57821;52.202;0.154;2023-02-01T11:44:30;102258.47;;;11.04;58.59
70407;BME280;57821;52.202;0.154;2023-02-01T11:47:38;102252.44;;;11.05;58.39
70407;BME280;57821;52.202;0.154;2023-02-01T11:50:17;102254.06;;;11.00;59.40
70407;BME280;57821;52.202;0.154;2023-02-01T11:59:19;102247.22;;;11.04;59.82
70407;BME280;57821;52.202;0.154;2023-02-01T12:02:19;102254.00;;;10.97;58.77
70407;BME280;57821;52.202;0.154;2023-02-01T12:04:55;102277.41;;;10.99;59.87
70407;BME280;57821;52.202;0.154;2023-02-01T12:17:05;102259.47;;;10.67;59.90
70407;BME280;57821;52.202;0.154;2023-02-01T12:19:59;102246.25;;;10.54;60.00
70407;BME280;57821;52.202;0.154;2023-02-01T12:25:34;102250.44;;;10.47;60.47
70407;BME280;57821;52.202;0.154;2023-02-01T12:28:30;102252.91;;;10.43;60.66
70407;BME280;57821;52.202;0.154;2023-02-01T12:34:10;102245.88;;;10.37;61.42
70407;BME280;57821;52.202;0.154;2023-02-01T12:37:07;102236.38;;;10.36;61.93
70407;BME280;57821;52.202;0.154;2023-02-01T12:39:52;102243.25;;;10.34;61.90
70407;BME280;57821;52.202;0.154;2023-02-01T12:42:27;102245.06;;;10.38;62.54
70407;BME280;57821;52.202;0.154;2023-02-01T12:45:10;102260.59;;;10.38;62.03
70407;BME280;57821;52.202;0.154;2023-02-01T12:47:45;102244.03;;;10.32;62.37
70407;BME280;57821;52.202;0.154;2023-02-01T12:50:19;102254.41;;;10.32;62.24
70407;BME280;57821;52.202;0.154;2023-02-01T12:52:54;102258.81;;;10.34;62.15
70407;BME280;57821;52.202;0.154;2023-02-01T12:55:34;102258.00;;;10.37;62.10
70407;BME280;57821;52.202;0.154;2023-02-01T12:58:09;102264.13;;;10.40;62.31
70407;BME280;57821;52.202;0.154;2023-02-01T13:00:45;102251.06;;;10.37;62.50
70407;BME280;57821;52.202;0.154;2023-02-01T13:06:03;102253.63;;;10.34;62.62
70407;BME280;57821;52.202;0.154;2023-02-01T13:11:06;102251.88;;;10.33;62.70
70407;BME280;57821;52.202;0.154;2023-02-01T13:14:04;102247.50;;;10.31;62.34
70407;BME280;57821;52.202;0.154;2023-02-01T13:16:37;102250.09;;;10.32;62.83
70407;BME280;57821;52.202;0.154;2023-02-01T13:19:20;102244.91;;;10.31;62.94
70407;BME280;57821;52.202;0.154;2023-02-01T13:21:51;102241.38;;;10.27;62.83
70407;BME280;57821;52.202;0.154;2023-02-01T13:24:29;102232.75;;;10.28;62.95
70407;BME280;57821;52.202;0.154;2023-02-01T13:26:57;102239.75;;;10.32;62.87
70407;BME280;57821;52.202;0.154;2023-02-01T13:29:25;102237.97;;;10.31;62.91
70407;BME280;57821;52.202;0.154;2023-02-01T13:35:07;102232.75;;;10.28;63.22
70407;BME280;57821;52.202;0.154;2023-02-01T13:43:12;102231.06;;;10.30;63.54
70407;BME280;57821;52.202;0.154;2023-02-01T13:45:47;102213.69;;;10.26;63.63
70407;BME280;57821;52.202;0.154;2023-02-01T13:48:24;102236.25;;;10.30;63.23
70407;BME280;57821;52.202;0.154;2023-02-01T13:50:57;102234.50;;;10.29;63.41
70407;BME280;57821;52.202;0.154;2023-02-01T13:53:31;102234.47;;;10.27;63.11
70407;BME280;57821;52.202;0.154;2023-02-01T13:56:01;102228.31;;;10.22;63.25
70407;BME280;57821;52.202;0.154;2023-02-01T13:58:38;102229.97;;;10.20;63.65
70407;BME280;57821;52.202;0.154;2023-02-01T14:03:50;102227.47;;;10.25;63.68
70407;BME280;57821;52.202;0.154;2023-02-01T14:06:36;102240.56;;;10.29;63.34
70407;BME280;57821;52.202;0.154;2023-02-01T14:11:52;102241.56;;;10.36;63.46
70407;BME280;57821;52.202;0.154;2023-02-01T14:19:29;102237.97;;;10.31;63.69
70407;BME280;57821;52.202;0.154;2023-02-01T14:22:01;102243.28;;;10.37;63.45
70407;BME280;57821;52.202;0.154;2023-02-01T14:24:52;102234.69;;;10.38;63.85
70407;BME280;57821;52.202;0.154;2023-02-01T14:27:28;102236.31;;;10.33;64.10
70407;BME280;57821;52.202;0.154;2023-02-01T14:29:58;102245.84;;;10.34;64.09
70407;BME280;57821;52.202;0.154;2023-02-01T14:32:31;102237.22;;;10.35;64.39
70407;BME280;57821;52.202;0.154;2023-02-01T14:35:00;102232.78;;;10.31;64.16
70407;BME280;57821;52.202;0.154;2023-02-01T14:37:31;102232.84;;;10.33;64.10
70407;BME280;57821;52.202;0.154;2023-02-01T14:40:05;102225.97;;;10.35;64.21